Aérodrome :
LOGIN :

S'inscrire | Disclaimer

   EN    FR    IT 

 










Légende :    VFR   VFR Marginal   IFR   IFR Intensif   IFR Très Intensif
Visi : 
Plafond : 
>= 8 km
>= 3000ft
5 à 8 km
1000 à 3000 ft
1500m à 5 km
500 à 1000 ft
800 à 1500m
200 à 500 ft
< 800m
< 200 ft
Symboles :   Orages  Brouillard  Fortes neiges  Fortes précipitations  Vent > 20 kt
SIGMETs :   Divers  Orages  Givrage  Turbulence  Onde Orograph.  Cendres Volcan.







- Altitude de l'aérodrome : 1106 ft
- Voir les cartes d'approche


LFSO - Nancy / Ochey

DERNIER METAR :
  • 202100Z AUTO 06005KT CAVOK 13/12 Q1016

METARs EXPIRÉS :
  • 202030Z AUTO 04006KT CAVOK 13/12 Q1016
  • 202000Z AUTO 05005KT CAVOK 14/12 Q1016
  • 201930Z AUTO 05004KT CAVOK 14/12 Q1016
  • 201900Z AUTO 04005KT 9999 FEW022 BKN092 15/12 Q1016
  • 201830Z AUTO 04007KT 010V070 9999 BKN023 16/12 Q1016

TAF TAF LFSO
Valide du 20 à 09h jusqu'au 21 à 09h UTC


200800Z 2009/2109 05008KT CAVOK
BECMG 2009/2010 SCT030TCU
TEMPO 2010/2021 07015G25KT 4500 -SHRA BKN015 BKN030TCU
PROB40
TEMPO 2011/2020 07020G30KT 2000 -TSRA BKN010 BKN030CB
FM202100 04005KT CAVOK
TEMPO 2103/2106 3000 BR
Pas de NOTAMs connus pour ce terrain.



MET'MAP, la Météo Aéronautique d'un coup d'oeil ! - Copyright ORBIFLY Décembre 2007 - Disclaimer

ORBIFLY MET'MAP TEAM :

Programmation & Développement : Alexandra Zaïnal
Conception & Développement : Baudouin d'Aumeries
Co-Programmation & Développement : Marc-Olivier Méhu
Soutien technique & logistique : Manuel Goepfert

Contact : metmap@orbifly.com




SOURCES & CREDITS :

   NOAA